createdAt,value
2023-06-12T00:00:29.669Z,22.36
2023-06-12T00:02:58.933Z,22.32
2023-06-12T00:05:28.807Z,22.27
2023-06-12T00:07:58.071Z,22.25
2023-06-12T00:10:25.275Z,22.17
2023-06-12T00:12:52.259Z,22.20
2023-06-12T00:15:19.450Z,22.20
2023-06-12T00:17:46.150Z,22.11
2023-06-12T00:20:13.329Z,22.13
2023-06-12T00:22:41.557Z,22.05
2023-06-12T00:25:09.180Z,22.02
2023-06-12T00:27:35.861Z,21.99
2023-06-12T00:30:03.778Z,21.92
2023-06-12T00:32:30.498Z,21.92
2023-06-12T00:34:57.255Z,21.87
2023-06-12T00:37:25.829Z,21.81
2023-06-12T00:39:52.703Z,21.80
2023-06-12T00:42:21.911Z,21.73
2023-06-12T00:44:48.818Z,21.66
2023-06-12T00:47:15.811Z,21.66
2023-06-12T00:49:43.653Z,21.67
2023-06-12T00:52:13.106Z,21.58
2023-06-12T00:54:41.423Z,21.50
2023-06-12T00:57:09.160Z,21.43
2023-06-12T00:59:36.876Z,21.34
2023-06-12T01:02:04.629Z,21.31
2023-06-12T01:04:32.122Z,21.26
2023-06-12T01:07:09.362Z,21.24
2023-06-12T01:09:55.068Z,21.21
2023-06-12T01:12:21.798Z,21.22
2023-06-12T01:14:48.967Z,21.15
2023-06-12T01:17:18.433Z,21.13
2023-06-12T01:19:45.511Z,21.12
2023-06-12T01:22:14.390Z,21.06
2023-06-12T01:24:50.897Z,21.02
2023-06-12T01:27:45.901Z,20.96
2023-06-12T01:30:48.116Z,20.89
2023-06-12T01:33:34.322Z,20.73
2023-06-12T01:36:02.029Z,20.71
2023-06-12T01:38:30.579Z,20.69
2023-06-12T01:40:59.068Z,20.63
2023-06-12T01:43:26.083Z,20.56
2023-06-12T01:45:52.990Z,20.54
2023-06-12T01:48:19.638Z,20.42
2023-06-12T01:50:46.335Z,20.36
2023-06-12T01:53:14.532Z,20.33
2023-06-12T01:55:42.742Z,20.35
2023-06-12T01:58:10.197Z,20.26
2023-06-12T02:00:37.369Z,20.22
2023-06-12T02:03:04.919Z,20.23
2023-06-12T02:05:31.607Z,20.25
2023-06-12T02:07:58.242Z,20.23
2023-06-12T02:10:25.154Z,20.25
2023-06-12T02:12:54.751Z,20.19
2023-06-12T02:15:21.844Z,20.14
2023-06-12T02:17:48.539Z,20.12
2023-06-12T02:20:15.329Z,20.12
2023-06-12T02:22:42.642Z,20.10
2023-06-12T02:25:09.446Z,20.15
2023-06-12T02:27:36.210Z,20.07
2023-06-12T02:30:02.922Z,20.04
2023-06-12T02:32:29.561Z,20.00
2023-06-12T02:34:56.216Z,19.94
2023-06-12T02:37:23.811Z,19.84
2023-06-12T02:39:50.777Z,19.82
2023-06-12T02:42:17.418Z,19.81
2023-06-12T02:44:44.015Z,19.73
2023-06-12T02:47:10.995Z,19.70
2023-06-12T02:49:39.686Z,19.67
2023-06-12T02:52:07.077Z,19.59
2023-06-12T02:54:34.375Z,19.58
2023-06-12T02:57:01.490Z,19.54
2023-06-12T02:59:28.314Z,19.50
2023-06-12T03:01:55.204Z,19.44
2023-06-12T03:04:22.734Z,19.41
2023-06-12T03:06:54.946Z,19.41
2023-06-12T03:09:23.216Z,19.34
2023-06-12T03:11:52.920Z,19.31
2023-06-12T03:14:22.833Z,19.21
2023-06-12T03:16:49.815Z,19.18
2023-06-12T03:19:17.258Z,19.18
2023-06-12T03:21:44.868Z,19.12
2023-06-12T03:24:12.088Z,19.13
2023-06-12T03:26:40.078Z,19.13
2023-06-12T03:29:07.421Z,19.06
2023-06-12T03:31:34.646Z,19.03
2023-06-12T03:34:01.415Z,19.01
2023-06-12T03:36:29.887Z,18.96
2023-06-12T03:38:57.194Z,18.96
2023-06-12T03:41:24.824Z,18.91
2023-06-12T03:43:52.490Z,18.91
2023-06-12T03:46:19.382Z,18.92
2023-06-12T03:48:46.037Z,18.89
2023-06-12T03:51:12.695Z,18.87
2023-06-12T03:53:40.262Z,18.84
2023-06-12T03:56:08.435Z,18.83
2023-06-12T03:58:36.088Z,18.84
2023-06-12T04:01:03.039Z,18.79
2023-06-12T04:03:32.723Z,18.81
2023-06-12T04:05:59.640Z,18.76
2023-06-12T04:08:26.222Z,18.74
2023-06-12T04:10:53.647Z,18.72
2023-06-12T04:13:20.253Z,18.70
2023-06-12T04:15:48.613Z,18.67
2023-06-12T04:18:15.743Z,18.69
2023-06-12T04:20:42.661Z,18.71
2023-06-12T04:23:12.711Z,18.76
2023-06-12T04:25:40.279Z,18.75
2023-06-12T04:28:09.657Z,18.72
2023-06-12T04:30:36.775Z,18.73
2023-06-12T04:33:04.791Z,18.77
2023-06-12T04:35:34.628Z,18.74
2023-06-12T04:38:01.564Z,18.72
2023-06-12T04:40:28.948Z,18.75
2023-06-12T04:42:57.935Z,18.76
2023-06-12T04:45:25.107Z,18.77
2023-06-12T04:47:52.421Z,18.82
2023-06-12T04:50:20.108Z,18.82
2023-06-12T04:52:49.332Z,18.78
2023-06-12T04:55:22.090Z,18.83
2023-06-12T04:57:53.822Z,18.96
2023-06-12T05:00:21.805Z,19.02
2023-06-12T05:02:48.961Z,19.05
2023-06-12T05:05:15.828Z,19.06
2023-06-12T05:07:46.616Z,19.05
2023-06-12T05:10:16.767Z,19.16
2023-06-12T05:12:43.739Z,19.26
2023-06-12T05:15:11.153Z,19.33
2023-06-12T05:17:39.231Z,19.44
2023-06-12T05:20:10.904Z,19.54
2023-06-12T05:22:38.006Z,19.71
2023-06-12T05:25:05.684Z,19.85
2023-06-12T05:27:32.831Z,19.92
2023-06-12T05:29:59.945Z,20.07
2023-06-12T05:32:26.827Z,20.05
2023-06-12T05:34:53.636Z,20.06
2023-06-12T05:37:20.654Z,20.11
2023-06-12T05:39:47.487Z,20.29
2023-06-12T05:42:14.288Z,20.45
2023-06-12T05:44:41.001Z,20.55
2023-06-12T05:47:11.036Z,20.58
2023-06-12T05:49:37.961Z,20.79
2023-06-12T05:52:05.182Z,20.95
2023-06-12T05:54:33.094Z,21.05
2023-06-12T05:56:59.890Z,21.29
2023-06-12T05:59:26.604Z,21.46
2023-06-12T06:01:53.233Z,21.61
2023-06-12T06:04:20.499Z,21.72
2023-06-12T06:06:48.399Z,21.87
2023-06-12T06:09:15.719Z,22.03
2023-06-12T06:11:42.614Z,22.22
2023-06-12T06:14:09.605Z,22.25
2023-06-12T06:16:49.342Z,22.38
2023-06-12T06:19:21.367Z,22.55
2023-06-12T06:21:47.959Z,22.64
2023-06-12T06:24:14.868Z,22.77
2023-06-12T06:26:41.964Z,22.83
2023-06-12T06:29:14.477Z,22.93
2023-06-12T06:31:42.185Z,23.03
2023-06-12T06:34:08.970Z,23.23
2023-06-12T06:36:36.690Z,23.43
2023-06-12T06:39:04.987Z,23.58
2023-06-12T06:41:31.517Z,23.81
2023-06-12T06:43:58.105Z,24.00
2023-06-12T06:46:24.737Z,24.20
2023-06-12T06:48:51.600Z,24.41
2023-06-12T06:51:19.350Z,24.58
2023-06-12T06:53:47.598Z,24.87
2023-06-12T06:56:14.280Z,25.03
2023-06-12T06:58:41.549Z,25.20
2023-06-12T07:01:08.312Z,25.41
2023-06-12T07:03:34.950Z,25.59
2023-06-12T07:06:01.752Z,25.71
2023-06-12T07:08:28.588Z,25.95
2023-06-12T07:10:55.186Z,26.04
2023-06-12T07:13:21.736Z,26.15
2023-06-12T07:15:48.606Z,26.22
2023-06-12T07:18:15.542Z,26.27
2023-06-12T07:20:42.209Z,26.47
2023-06-12T07:23:09.208Z,26.57
2023-06-12T07:25:36.315Z,26.70
2023-06-12T07:28:02.944Z,26.78
2023-06-12T07:30:29.581Z,26.97
2023-06-12T07:32:56.330Z,27.00
2023-06-12T07:35:23.339Z,27.25
2023-06-12T07:37:51.540Z,27.38
2023-06-12T07:40:18.623Z,27.51
2023-06-12T07:42:45.203Z,27.76
2023-06-12T07:45:12.640Z,27.99
2023-06-12T07:47:40.010Z,28.12
2023-06-12T07:50:07.189Z,28.36
2023-06-12T07:52:33.872Z,28.38
2023-06-12T07:55:01.126Z,28.55
2023-06-12T07:57:29.327Z,28.70
2023-06-12T07:59:56.441Z,28.71
2023-06-12T08:02:30.545Z,28.93
2023-06-12T08:04:57.429Z,28.92
2023-06-12T08:07:24.063Z,29.10
2023-06-12T08:09:50.989Z,29.22
2023-06-12T08:12:17.662Z,29.40
2023-06-12T08:14:44.512Z,29.49
2023-06-12T08:17:12.641Z,29.40
2023-06-12T08:19:40.467Z,29.35
2023-06-12T08:22:09.120Z,29.31
2023-06-12T08:24:37.691Z,29.32
2023-06-12T08:27:04.924Z,29.16
2023-06-12T08:29:32.206Z,29.22
2023-06-12T08:31:58.860Z,29.27
2023-06-12T08:34:27.078Z,29.05
2023-06-12T08:36:54.786Z,28.99
2023-06-12T08:39:21.751Z,29.15
2023-06-12T08:42:08.623Z,29.04
2023-06-12T08:44:36.356Z,28.93
2023-06-12T08:47:04.897Z,28.72
2023-06-12T08:49:32.625Z,28.93
2023-06-12T08:52:00.014Z,28.88
2023-06-12T08:54:26.599Z,28.82
2023-06-12T08:56:57.185Z,28.92
2023-06-12T08:59:24.401Z,28.64
2023-06-12T09:02:12.049Z,28.81
2023-06-12T09:05:00.904Z,28.52
2023-06-12T09:07:30.922Z,28.36
2023-06-12T09:10:08.590Z,28.25
2023-06-12T09:12:44.476Z,28.25
2023-06-12T09:15:17.384Z,28.31
2023-06-12T09:17:47.768Z,28.55
2023-06-12T09:20:40.656Z,28.52
2023-06-12T09:23:09.608Z,28.50
2023-06-12T09:25:55.494Z,28.88
2023-06-12T09:28:38.521Z,28.95
2023-06-12T09:31:06.297Z,29.15
2023-06-12T09:33:33.650Z,28.98
2023-06-12T09:36:01.177Z,28.83
2023-06-12T09:38:36.265Z,28.63
2023-06-12T09:41:08.094Z,28.40
2023-06-12T09:43:37.081Z,28.49
2023-06-12T09:46:06.707Z,28.48
2023-06-12T09:48:36.559Z,28.42
2023-06-12T09:51:07.865Z,28.39
2023-06-12T09:53:37.930Z,28.55
2023-06-12T09:56:09.313Z,28.67
2023-06-12T09:58:40.340Z,28.80
2023-06-12T10:01:09.213Z,28.37
2023-06-12T10:03:39.098Z,28.44
2023-06-12T10:06:08.360Z,28.42
2023-06-12T10:08:36.177Z,28.55
2023-06-12T10:11:04.442Z,28.58
2023-06-12T10:13:32.771Z,28.57
2023-06-12T10:15:59.789Z,28.38
2023-06-12T10:18:27.800Z,28.38
2023-06-12T10:20:54.928Z,28.19
2023-06-12T10:23:24.008Z,27.88
2023-06-12T10:25:51.984Z,28.21
2023-06-12T10:28:19.670Z,28.36
2023-06-12T10:31:05.651Z,28.27
2023-06-12T10:33:32.296Z,28.26
2023-06-12T10:35:58.857Z,28.19
2023-06-12T10:38:25.613Z,28.16
2023-06-12T10:40:52.785Z,28.07
2023-06-12T10:43:26.466Z,28.04
2023-06-12T10:45:59.998Z,28.04
2023-06-12T10:48:27.016Z,28.12
2023-06-12T10:50:55.536Z,28.26
2023-06-12T10:53:32.772Z,28.35
2023-06-12T10:56:06.791Z,28.32
2023-06-12T10:58:38.302Z,28.33
2023-06-12T11:01:15.569Z,28.44
2023-06-12T11:03:44.355Z,28.41
2023-06-12T11:06:17.759Z,28.24
2023-06-12T11:08:47.310Z,27.96
2023-06-12T11:11:16.049Z,28.02
2023-06-12T11:13:44.164Z,27.94
2023-06-12T11:16:18.493Z,27.75
2023-06-12T11:18:45.237Z,27.88
2023-06-12T11:21:12.531Z,28.09
2023-06-12T11:23:43.627Z,28.30
2023-06-12T11:26:10.849Z,28.25
2023-06-12T11:28:37.629Z,28.10
2023-06-12T11:33:34.494Z,27.73
2023-06-12T11:36:01.790Z,27.76
2023-06-12T11:40:58.611Z,27.97
2023-06-12T11:43:26.032Z,27.88
2023-06-12T11:45:56.424Z,28.00
2023-06-12T11:50:54.277Z,27.88
2023-06-12T11:53:21.959Z,27.90
2023-06-12T11:58:22.506Z,27.94
2023-06-12T12:00:51.186Z,28.42
2023-06-12T12:03:18.234Z,28.50
2023-06-12T12:05:45.224Z,28.53
2023-06-12T12:08:13.392Z,28.47
2023-06-12T12:10:41.783Z,28.31
2023-06-12T12:13:09.002Z,28.48
2023-06-12T12:15:43.186Z,28.82
2023-06-12T12:18:14.637Z,28.81
2023-06-12T12:20:42.154Z,28.85
2023-06-12T12:23:14.199Z,28.81
2023-06-12T12:25:45.543Z,28.66
2023-06-12T12:28:12.433Z,28.79
2023-06-12T12:30:39.057Z,28.97
2023-06-12T12:33:06.203Z,29.11
2023-06-12T12:35:33.195Z,29.16
2023-06-12T12:38:00.187Z,29.01
2023-06-12T12:40:29.912Z,28.88
2023-06-12T12:42:56.856Z,28.99
2023-06-12T12:45:23.453Z,29.12
2023-06-12T12:47:50.522Z,29.16
2023-06-12T12:50:23.493Z,29.24
2023-06-12T12:52:53.136Z,29.31
2023-06-12T12:55:19.714Z,29.40
2023-06-12T12:57:48.159Z,29.39
2023-06-12T13:00:19.436Z,29.20
2023-06-12T13:02:47.265Z,29.25
2023-06-12T13:05:16.688Z,29.32
2023-06-12T13:07:44.342Z,29.42
2023-06-12T13:10:14.738Z,29.31
2023-06-12T13:12:42.085Z,29.30
2023-06-12T13:15:10.988Z,29.19
2023-06-12T13:17:38.389Z,29.07
2023-06-12T13:20:05.884Z,28.98
2023-06-12T13:22:34.103Z,29.07
2023-06-12T13:25:00.892Z,28.89
2023-06-12T13:27:27.449Z,28.92
2023-06-12T13:29:54.456Z,29.06
2023-06-12T13:32:21.772Z,29.16
2023-06-12T13:34:48.458Z,29.33
2023-06-12T13:37:15.294Z,29.45
2023-06-12T13:39:41.929Z,29.28
2023-06-12T13:42:08.812Z,29.25
2023-06-12T13:44:36.071Z,29.32
2023-06-12T13:47:03.053Z,29.27
2023-06-12T13:49:31.922Z,29.34
2023-06-12T13:51:59.632Z,29.25
2023-06-12T13:54:26.365Z,29.26
2023-06-12T13:56:53.070Z,29.52
2023-06-12T13:59:21.420Z,29.53
2023-06-12T14:01:48.747Z,29.43
2023-06-12T14:04:19.497Z,29.62
2023-06-12T14:06:49.782Z,29.48
2023-06-12T14:09:16.623Z,29.52
2023-06-12T14:11:43.485Z,29.71
2023-06-12T14:14:11.156Z,29.63
2023-06-12T14:16:38.408Z,29.85
2023-06-12T14:19:05.009Z,29.91
2023-06-12T14:21:31.970Z,29.81
2023-06-12T14:24:00.109Z,29.74
2023-06-12T14:26:27.849Z,29.76
2023-06-12T14:28:54.695Z,29.75
2023-06-12T14:31:22.629Z,29.63
2023-06-12T14:33:49.544Z,29.88
2023-06-12T14:36:16.120Z,29.86
2023-06-12T14:38:42.817Z,29.91
2023-06-12T14:41:09.473Z,29.85
2023-06-12T14:43:36.110Z,29.60
2023-06-12T14:46:02.887Z,29.44
2023-06-12T14:48:30.984Z,29.49
2023-06-12T14:50:57.890Z,29.49
2023-06-12T14:53:24.512Z,29.58
2023-06-12T14:55:51.228Z,29.61
2023-06-12T14:58:18.240Z,29.35
2023-06-12T15:00:45.575Z,29.43
2023-06-12T15:03:12.558Z,29.32
2023-06-12T15:05:39.336Z,29.11
2023-06-12T15:08:06.170Z,29.35
2023-06-12T15:10:33.316Z,29.35
2023-06-12T15:13:09.417Z,29.20
2023-06-12T15:15:38.394Z,29.19
2023-06-12T15:18:05.823Z,29.26
2023-06-12T15:20:32.890Z,29.17
2023-06-12T15:22:59.597Z,29.12
2023-06-12T15:25:26.400Z,28.93
2023-06-12T15:27:53.315Z,28.87
2023-06-12T15:30:20.164Z,28.94
2023-06-12T15:32:47.949Z,28.95
2023-06-12T15:35:15.939Z,29.01
2023-06-12T15:37:42.998Z,29.09
2023-06-12T15:40:10.542Z,28.85
2023-06-12T15:42:38.821Z,28.37
2023-06-12T15:45:06.430Z,28.35
2023-06-12T15:47:36.068Z,28.17
2023-06-12T15:50:03.920Z,28.05
2023-06-12T15:52:31.840Z,27.80
2023-06-12T15:54:58.704Z,27.83
2023-06-12T15:57:25.676Z,27.67
2023-06-12T15:59:52.292Z,27.64
2023-06-12T16:02:19.669Z,27.50
2023-06-12T16:04:47.195Z,27.48
2023-06-12T16:07:14.050Z,27.42
2023-06-12T16:09:42.584Z,27.38
2023-06-12T16:12:09.823Z,27.20
2023-06-12T16:14:36.461Z,27.09
2023-06-12T16:17:04.121Z,26.96
2023-06-12T16:19:31.444Z,26.98
2023-06-12T16:21:58.427Z,26.98
2023-06-12T16:24:25.181Z,27.05
2023-06-12T16:26:54.105Z,27.15
2023-06-12T16:29:20.838Z,27.17
2023-06-12T16:31:49.029Z,26.98
2023-06-12T16:34:17.081Z,26.89
2023-06-12T16:36:44.601Z,26.85
2023-06-12T16:39:11.373Z,26.92
2023-06-12T16:41:38.204Z,26.83
2023-06-12T16:44:05.062Z,26.78
2023-06-12T16:46:31.895Z,26.80
2023-06-12T16:48:58.919Z,26.84
2023-06-12T16:51:25.876Z,26.80
2023-06-12T16:53:53.456Z,26.76
2023-06-12T16:56:20.325Z,26.69
2023-06-12T16:58:47.028Z,26.71
2023-06-12T17:01:15.572Z,26.69
2023-06-12T17:03:42.448Z,26.59
2023-06-12T17:06:11.710Z,26.57
2023-06-12T17:08:39.308Z,26.69
2023-06-12T17:11:10.077Z,26.57
2023-06-12T17:13:37.190Z,26.41
2023-06-12T17:16:04.352Z,26.31
2023-06-12T17:18:31.303Z,26.40
2023-06-12T17:20:58.022Z,26.31
2023-06-12T17:23:25.168Z,26.30
2023-06-12T17:25:51.699Z,26.26
2023-06-12T17:28:18.308Z,26.32
2023-06-12T17:30:45.069Z,26.30
2023-06-12T17:33:12.212Z,26.31
2023-06-12T17:35:39.602Z,26.26
2023-06-12T17:38:06.211Z,26.10
2023-06-12T17:40:34.257Z,26.04
2023-06-12T17:43:01.214Z,26.03
2023-06-12T17:45:28.014Z,25.94
2023-06-12T17:47:56.634Z,25.98
2023-06-12T17:50:23.793Z,25.85
2023-06-12T17:52:50.435Z,25.79
2023-06-12T17:55:17.303Z,25.73
2023-06-12T17:57:46.514Z,25.77
2023-06-12T18:00:16.060Z,25.68
2023-06-12T18:02:43.221Z,25.62
2023-06-12T18:05:10.086Z,25.58
2023-06-12T18:07:36.793Z,25.39
2023-06-12T18:10:04.809Z,25.34
2023-06-12T18:12:31.725Z,25.32
2023-06-12T18:14:58.554Z,25.27
2023-06-12T18:17:25.471Z,25.08
2023-06-12T18:19:53.330Z,24.84
2023-06-12T18:22:19.915Z,24.84
2023-06-12T18:24:46.479Z,24.86
2023-06-12T18:27:13.181Z,24.87
2023-06-12T18:29:39.922Z,24.83
2023-06-12T18:32:07.032Z,24.73
2023-06-12T18:34:34.336Z,24.58
2023-06-12T18:37:05.049Z,24.61
2023-06-12T18:39:32.058Z,24.56
2023-06-12T18:41:59.663Z,24.54
2023-06-12T18:44:27.695Z,24.45
2023-06-12T18:46:54.637Z,24.39
2023-06-12T18:49:22.707Z,24.23
2023-06-12T18:51:49.457Z,24.24
2023-06-12T18:54:16.121Z,24.26
2023-06-12T18:56:43.292Z,24.20
2023-06-12T18:59:09.903Z,24.20
2023-06-12T19:01:36.827Z,24.13
2023-06-12T19:04:03.716Z,24.15
2023-06-12T19:06:30.416Z,24.20
2023-06-12T19:08:57.018Z,24.21
2023-06-12T19:11:23.819Z,24.07
2023-06-12T19:13:53.386Z,24.00
2023-06-12T19:16:20.181Z,24.04
2023-06-12T19:18:46.815Z,23.95
2023-06-12T19:21:14.250Z,23.97
2023-06-12T19:23:40.926Z,23.87
2023-06-12T19:26:08.143Z,23.89
2023-06-12T19:28:34.852Z,23.76
2023-06-12T19:31:01.641Z,23.71
2023-06-12T19:33:28.565Z,23.67
2023-06-12T19:35:55.226Z,23.68
2023-06-12T19:38:22.222Z,23.62
2023-06-12T19:40:50.261Z,23.65
2023-06-12T19:43:17.015Z,23.62
2023-06-12T19:45:43.904Z,23.54
2023-06-12T19:48:10.726Z,23.52
2023-06-12T19:50:37.783Z,23.44
2023-06-12T19:53:04.488Z,23.47
2023-06-12T19:55:31.513Z,23.35
2023-06-12T19:57:59.289Z,23.31
2023-06-12T20:00:26.830Z,23.26
2023-06-12T20:02:57.449Z,23.23
2023-06-12T20:05:24.308Z,23.19
2023-06-12T20:07:51.238Z,23.14
2023-06-12T20:10:18.028Z,23.12
2023-06-12T20:12:44.699Z,23.26
2023-06-12T20:15:11.931Z,23.48
2023-06-12T20:17:38.861Z,23.44
2023-06-12T20:20:06.251Z,23.45
2023-06-12T20:22:32.806Z,23.44
2023-06-12T20:24:59.590Z,23.51
2023-06-12T20:27:27.589Z,23.47
2023-06-12T20:29:56.211Z,23.44
2023-06-12T20:32:23.241Z,23.47
2023-06-12T20:34:49.876Z,23.25
2023-06-12T20:37:16.743Z,23.34
2023-06-12T20:39:43.659Z,23.33
2023-06-12T20:42:11.414Z,23.24
2023-06-12T20:44:38.598Z,23.25
2023-06-12T20:47:05.271Z,23.35
2023-06-12T20:49:32.032Z,23.44
2023-06-12T20:51:58.675Z,23.47
2023-06-12T20:54:25.265Z,23.23
2023-06-12T20:56:51.855Z,23.18
2023-06-12T20:59:19.439Z,23.26
2023-06-12T21:01:46.171Z,23.34
2023-06-12T21:04:13.103Z,23.23
2023-06-12T21:06:39.884Z,23.22
2023-06-12T21:09:06.796Z,23.18
2023-06-12T21:11:35.800Z,23.23
2023-06-12T21:14:10.555Z,23.06
2023-06-12T21:16:38.244Z,23.09
2023-06-12T21:19:06.601Z,23.07
2023-06-12T21:21:37.066Z,23.03
2023-06-12T21:24:04.006Z,23.00
2023-06-12T21:26:30.932Z,22.99
2023-06-12T21:28:58.075Z,22.94
2023-06-12T21:31:27.944Z,22.85
2023-06-12T21:33:54.851Z,22.87
2023-06-12T21:36:22.978Z,22.84
2023-06-12T21:38:50.402Z,22.84
2023-06-12T21:41:17.793Z,22.79
2023-06-12T21:43:44.765Z,22.67
2023-06-12T21:46:11.828Z,22.55
2023-06-12T21:48:38.508Z,22.68
2023-06-12T21:51:05.137Z,22.62
2023-06-12T21:53:33.095Z,22.61
2023-06-12T21:56:00.078Z,22.64
2023-06-12T21:58:26.863Z,22.65
2023-06-12T22:00:54.060Z,22.64
2023-06-12T22:03:20.666Z,22.55
2023-06-12T22:05:47.301Z,22.57
2023-06-12T22:08:13.837Z,22.45
2023-06-12T22:10:41.508Z,22.46
2023-06-12T22:13:09.619Z,22.53
2023-06-12T22:15:37.033Z,22.49
2023-06-12T22:18:07.792Z,22.45
2023-06-12T22:20:35.259Z,22.36
2023-06-12T22:23:02.062Z,22.32
2023-06-12T22:25:28.714Z,22.27
2023-06-12T22:27:55.352Z,22.25
2023-06-12T22:30:22.041Z,22.21
2023-06-12T22:32:48.684Z,22.19
2023-06-12T22:35:15.546Z,22.07
2023-06-12T22:37:42.629Z,22.03
2023-06-12T22:40:10.086Z,22.20
2023-06-12T22:42:36.953Z,22.09
2023-06-12T22:45:03.926Z,22.04
2023-06-12T22:47:31.250Z,22.13
2023-06-12T22:49:58.169Z,22.00
2023-06-12T22:52:25.741Z,22.01
2023-06-12T22:54:52.330Z,22.10
2023-06-12T22:57:18.923Z,22.03
2023-06-12T22:59:45.642Z,21.97
2023-06-12T23:02:12.285Z,22.01
2023-06-12T23:04:39.260Z,21.87
2023-06-12T23:07:08.215Z,21.89
2023-06-12T23:09:34.975Z,21.80
2023-06-12T23:12:02.147Z,21.71
2023-06-12T23:14:28.636Z,21.66
2023-06-12T23:16:57.611Z,21.56
2023-06-12T23:19:26.989Z,21.51
2023-06-12T23:21:53.694Z,21.36
2023-06-12T23:24:22.814Z,21.25
2023-06-12T23:26:49.830Z,21.21
2023-06-12T23:29:16.849Z,21.21
2023-06-12T23:31:43.473Z,21.11
2023-06-12T23:34:10.084Z,21.06
2023-06-12T23:36:40.508Z,20.91
2023-06-12T23:39:08.621Z,20.88
2023-06-12T23:41:35.634Z,20.80
2023-06-12T23:44:03.019Z,20.69
2023-06-12T23:46:29.644Z,20.57
2023-06-12T23:48:56.759Z,20.51
2023-06-12T23:51:23.244Z,20.36
2023-06-12T23:53:49.859Z,20.29
2023-06-12T23:56:16.656Z,20.14
2023-06-12T23:58:43.307Z,20.30
